PLM7322 LIPZ-EGBB
Flight info
| Callsign | PLM7322 |
|---|---|
| Flight time | N/A |
| Altitude | 40000 |
| Route | ROKIB DCT UNTAD DCT RESIA DCT ELMUR DCT RIPUS DCT DITON DCT HOC DCT LUL DCT RLP DCT ROTSI DCT KOTUN DCT NINAL DCT ABNUR DCT DIMAL DCT ALESO T420 HEMEL |
| Aircraft | A333/H-SDE3GHIJ2J3J5M1RVWXY/LB2D1 |
Departure
| Time | 2026-04-28 16:48 |
|---|---|
| Airport | Venice Marco Polo Airport (LIPZ) |
Arrival
| Time | N/A |
|---|---|
| Airport | Birmingham Airport (EGBB) |
| Time | Latitude | Longitude | Altitude | Speed | Heading |
|---|---|---|---|---|---|
| 2026-04-28 16:36 | 45.50362 | 12.34182 | 20 ft | 0 kts | 290° |
| 2026-04-28 16:42 | 45.50357 | 12.34203 | 22 ft | 4 kts | 287° |
| 2026-04-28 16:43 | 45.50350 | 12.34241 | 22 ft | 4 kts | 281° |
| 2026-04-28 16:43 | 45.50346 | 12.34278 | 23 ft | 4 kts | 274° |
| 2026-04-28 16:43 | 45.50346 | 12.34316 | 23 ft | 4 kts | 258° |
| 2026-04-28 16:43 | 45.50356 | 12.34346 | 22 ft | 4 kts | 204° |
| 2026-04-28 16:44 | 45.50362 | 12.34350 | 24 ft | 0 kts | 176° |
| 2026-04-28 16:45 | 45.50292 | 12.34340 | 20 ft | 19 kts | 202° |
| 2026-04-28 16:45 | 45.50144 | 12.34162 | 20 ft | 36 kts | 223° |
| 2026-04-28 16:46 | 45.49935 | 12.33893 | 19 ft | 44 kts | 221° |
| 2026-04-28 16:46 | 45.49681 | 12.33600 | 20 ft | 46 kts | 213° |
| 2026-04-28 16:46 | 45.49526 | 12.33538 | 20 ft | 9 kts | 125° |
| 2026-04-28 16:46 | 45.49482 | 12.33636 | 21 ft | 14 kts | 126° |
| 2026-04-28 16:47 | 45.49438 | 12.33758 | 21 ft | 10 kts | 86° |
| 2026-04-28 16:47 | 45.49494 | 12.33868 | 18 ft | 24 kts | 48° |
| 2026-04-28 16:47 | 45.49733 | 12.34188 | 17 ft | 79 kts | 41° |
| 2026-04-28 16:47 | 45.50307 | 12.34923 | 18 ft | 140 kts | 42° |
| 2026-04-28 16:48 | 45.51123 | 12.35988 | 392 ft | 163 kts | 45° |
| 2026-04-28 16:48 | 45.51931 | 12.37079 | 1201 ft | 162 kts | 47° |
| 2026-04-28 16:48 | 45.52773 | 12.38290 | 1669 ft | 186 kts | 49° |
| 2026-04-28 16:48 | 45.53492 | 12.39958 | 2175 ft | 207 kts | 75° |
| 2026-04-28 16:49 | 45.53568 | 12.42028 | 3083 ft | 210 kts | 95° |
| 2026-04-28 16:49 | 45.53371 | 12.44106 | 4025 ft | 213 kts | 97° |
| 2026-04-28 16:49 | 45.53131 | 12.46232 | 4918 ft | 220 kts | 98° |
| 2026-04-28 16:49 | 45.52888 | 12.48419 | 5758 ft | 227 kts | 98° |
| 2026-04-28 16:50 | 45.52534 | 12.50612 | 6594 ft | 233 kts | 113° |
| 2026-04-28 16:50 | 45.51549 | 12.52433 | 7394 ft | 236 kts | 148° |
| 2026-04-28 16:50 | 45.49992 | 12.53106 | 8148 ft | 240 kts | 185° |
| 2026-04-28 16:50 | 45.48362 | 12.52561 | 8995 ft | 242 kts | 202° |
| 2026-04-28 16:51 | 45.46873 | 12.51434 | 9844 ft | 243 kts | 220° |
| 2026-04-28 16:51 | 45.45821 | 12.49556 | 10571 ft | 248 kts | 245° |
| 2026-04-28 16:51 | 45.45401 | 12.47108 | 10898 ft | 271 kts | 264° |
| 2026-04-28 16:51 | 45.45296 | 12.44302 | 11198 ft | 295 kts | 268° |
| 2026-04-28 16:52 | 45.45234 | 12.41272 | 11497 ft | 317 kts | 268° |
| 2026-04-28 16:52 | 45.45153 | 12.38057 | 11995 ft | 330 kts | 268° |
| 2026-04-28 16:52 | 45.45054 | 12.34761 | 12738 ft | 336 kts | 267° |
| 2026-04-28 16:52 | 45.44942 | 12.31414 | 13555 ft | 340 kts | 267° |
| 2026-04-28 16:53 | 45.44823 | 12.28041 | 14304 ft | 343 kts | 267° |
| 2026-04-28 16:53 | 45.44699 | 12.24635 | 15055 ft | 346 kts | 267° |
| 2026-04-28 16:53 | 45.44571 | 12.21197 | 15832 ft | 347 kts | 267° |
| 2026-04-28 16:53 | 45.44451 | 12.17794 | 16610 ft | 349 kts | 268° |
| 2026-04-28 16:54 | 45.44642 | 12.14335 | 17362 ft | 352 kts | 282° |
| 2026-04-28 16:54 | 45.45547 | 12.11079 | 18111 ft | 358 kts | 300° |
| 2026-04-28 16:54 | 45.47184 | 12.08382 | 18823 ft | 364 kts | 317° |
| 2026-04-28 16:54 | 45.48533 | 12.06914 | 19244 ft | 367 kts | 321° |
| 2026-04-28 16:55 | 45.51362 | 12.04190 | 20044 ft | 372 kts | 323° |
| 2026-04-28 16:55 | 45.53524 | 12.02142 | 20634 ft | 375 kts | 323° |
| 2026-04-28 16:55 | 45.55713 | 12.00053 | 21221 ft | 378 kts | 323° |
| 2026-04-28 16:55 | 45.57905 | 11.97946 | 21804 ft | 381 kts | 323° |
| 2026-04-28 16:56 | 45.60110 | 11.95816 | 22397 ft | 383 kts | 323° |
| 2026-04-28 16:56 | 45.62299 | 11.93695 | 22957 ft | 386 kts | 323° |
| 2026-04-28 16:56 | 45.64531 | 11.91526 | 23524 ft | 389 kts | 323° |
| 2026-04-28 16:56 | 45.66776 | 11.89342 | 23993 ft | 391 kts | 323° |
| 2026-04-28 16:57 | 45.69037 | 11.87140 | 24447 ft | 394 kts | 323° |
| 2026-04-28 16:57 | 45.71319 | 11.84924 | 24899 ft | 397 kts | 324° |
| 2026-04-28 16:57 | 45.73733 | 11.82950 | 25370 ft | 401 kts | 329° |
| 2026-04-28 16:57 | 45.76248 | 11.81168 | 25761 ft | 405 kts | 331° |
| 2026-04-28 16:58 | 45.78798 | 11.79412 | 26235 ft | 407 kts | 331° |
| 2026-04-28 16:58 | 45.81337 | 11.77667 | 26705 ft | 408 kts | 330° |
| 2026-04-28 16:58 | 45.83910 | 11.75893 | 27126 ft | 411 kts | 330° |
| 2026-04-28 16:58 | 45.86494 | 11.74106 | 27581 ft | 413 kts | 330° |
| 2026-04-28 16:59 | 45.89066 | 11.72249 | 28037 ft | 413 kts | 327° |
| 2026-04-28 16:59 | 45.91437 | 11.70007 | 28499 ft | 411 kts | 318° |
| 2026-04-28 16:59 | 45.93523 | 11.67224 | 28997 ft | 409 kts | 309° |
| 2026-04-28 16:59 | 45.95240 | 11.63963 | 29432 ft | 409 kts | 300° |
| 2026-04-28 17:00 | 45.96659 | 11.60407 | 29866 ft | 410 kts | 296° |
| 2026-04-28 17:00 | 45.97943 | 11.56790 | 30264 ft | 412 kts | 294° |
| 2026-04-28 17:00 | 45.99200 | 11.53023 | 30638 ft | 413 kts | 294° |
| 2026-04-28 17:00 | 46.00404 | 11.49332 | 31024 ft | 413 kts | 294° |
| 2026-04-28 17:01 | 46.01627 | 11.45581 | 31423 ft | 415 kts | 294° |
| 2026-04-28 17:01 | 46.02865 | 11.41815 | 31742 ft | 417 kts | 294° |
| 2026-04-28 17:01 | 46.04117 | 11.38042 | 32115 ft | 418 kts | 294° |
| 2026-04-28 17:01 | 46.05380 | 11.34262 | 32541 ft | 418 kts | 295° |
| 2026-04-28 17:02 | 46.06645 | 11.30490 | 33120 ft | 414 kts | 295° |
| 2026-04-28 17:02 | 46.07475 | 11.28018 | 33543 ft | 411 kts | 295° |
| 2026-04-28 17:02 | 46.09115 | 11.23121 | 34254 ft | 407 kts | 295° |
| 2026-04-28 17:02 | 46.10341 | 11.19454 | 34659 ft | 405 kts | 295° |
| 2026-04-28 17:03 | 46.12800 | 11.12083 | 35158 ft | 410 kts | 295° |
| 2026-04-28 17:03 | 46.14038 | 11.08361 | 35484 ft | 410 kts | 295° |
| 2026-04-28 17:03 | 46.15256 | 11.04695 | 35769 ft | 410 kts | 295° |
| 2026-04-28 17:04 | 46.17720 | 10.97265 | 36407 ft | 409 kts | 294° |
| 2026-04-28 17:04 | 46.18947 | 10.93560 | 36750 ft | 408 kts | 294° |
| 2026-04-28 17:05 | 46.21394 | 10.86148 | 37361 ft | 409 kts | 295° |
| 2026-04-28 17:05 | 46.22601 | 10.82481 | 37662 ft | 409 kts | 294° |
| 2026-04-28 17:05 | 46.23824 | 10.78751 | 37853 ft | 411 kts | 294° |
| 2026-04-28 17:06 | 46.26274 | 10.71253 | 38197 ft | 413 kts | 294° |
| 2026-04-28 17:06 | 46.27502 | 10.67487 | 38482 ft | 413 kts | 294° |
| 2026-04-28 17:06 | 46.29943 | 10.59987 | 38924 ft | 414 kts | 294° |
| 2026-04-28 17:07 | 46.31168 | 10.56217 | 39136 ft | 414 kts | 294° |
| 2026-04-28 17:07 | 46.32394 | 10.52439 | 39348 ft | 414 kts | 294° |
| 2026-04-28 17:07 | 46.33616 | 10.48668 | 39502 ft | 414 kts | 294° |
| 2026-04-28 17:07 | 46.34841 | 10.44882 | 39695 ft | 414 kts | 294° |
| 2026-04-28 17:08 | 46.36062 | 10.41102 | 39869 ft | 415 kts | 294° |
| 2026-04-28 17:08 | 46.36875 | 10.38580 | 39976 ft | 417 kts | 294° |
| 2026-04-28 17:08 | 46.38098 | 10.34784 | 40116 ft | 418 kts | 294° |
| 2026-04-28 17:08 | 46.39727 | 10.29716 | 40130 ft | 419 kts | 294° |
| 2026-04-28 17:09 | 46.42189 | 10.22047 | 40130 ft | 420 kts | 294° |
| 2026-04-28 17:09 | 46.44241 | 10.15635 | 40127 ft | 420 kts | 294° |
| 2026-04-28 17:10 | 46.46712 | 10.07956 | 40124 ft | 421 kts | 296° |
| 2026-04-28 17:10 | 46.49998 | 10.00902 | 40127 ft | 423 kts | 307° |
| 2026-04-28 17:11 | 46.53830 | 9.94377 | 40139 ft | 424 kts | 309° |
| 2026-04-28 17:11 | 46.57737 | 9.87991 | 40128 ft | 425 kts | 309° |
| 2026-04-28 17:12 | 46.61671 | 9.81555 | 40129 ft | 425 kts | 309° |
| 2026-04-28 17:12 | 46.65562 | 9.75137 | 40117 ft | 425 kts | 309° |
| 2026-04-28 17:13 | 46.69463 | 9.68666 | 40113 ft | 425 kts | 308° |
| 2026-04-28 17:13 | 46.73362 | 9.62177 | 40099 ft | 425 kts | 308° |
| 2026-04-28 17:14 | 46.77267 | 9.55665 | 40089 ft | 425 kts | 308° |
| 2026-04-28 17:14 | 46.81141 | 9.49192 | 40091 ft | 425 kts | 308° |
| 2026-04-28 17:15 | 46.85031 | 9.42677 | 40071 ft | 424 kts | 308° |
| 2026-04-28 17:15 | 46.88888 | 9.36198 | 40071 ft | 425 kts | 308° |
| 2026-04-28 17:16 | 46.92782 | 9.29640 | 40062 ft | 427 kts | 308° |
| 2026-04-28 17:16 | 46.96672 | 9.23078 | 40064 ft | 426 kts | 308° |
| 2026-04-28 17:17 | 47.00553 | 9.16513 | 40066 ft | 426 kts | 308° |
| 2026-04-28 17:17 | 47.04407 | 9.09982 | 40064 ft | 426 kts | 308° |
| 2026-04-28 17:18 | 47.08279 | 9.03402 | 40053 ft | 426 kts | 308° |
| 2026-04-28 17:18 | 47.12168 | 8.96775 | 40057 ft | 428 kts | 308° |
| 2026-04-28 17:19 | 47.15659 | 8.89720 | 40061 ft | 424 kts | 296° |
| 2026-04-28 17:19 | 47.18010 | 8.81848 | 40063 ft | 422 kts | 290° |
| 2026-04-28 17:20 | 47.19750 | 8.75115 | 40064 ft | 422 kts | 289° |
| 2026-04-28 17:20 | 47.22099 | 8.65689 | 40068 ft | 422 kts | 289° |
| 2026-04-28 17:21 | 47.24135 | 8.57555 | 40064 ft | 423 kts | 289° |
| 2026-04-28 17:22 | 47.27194 | 8.45401 | 40064 ft | 423 kts | 289° |
| 2026-04-28 17:22 | 47.29241 | 8.37270 | 40042 ft | 423 kts | 289° |
| 2026-04-28 17:23 | 47.32301 | 8.25040 | 40037 ft | 424 kts | 288° |
| 2026-04-28 17:23 | 47.34323 | 8.16893 | 40038 ft | 426 kts | 288° |
| 2026-04-28 17:24 | 47.36355 | 8.08677 | 40041 ft | 426 kts | 288° |
| 2026-04-28 17:24 | 47.38380 | 8.00464 | 40043 ft | 425 kts | 288° |
| 2026-04-28 17:25 | 47.41392 | 7.88193 | 40049 ft | 425 kts | 288° |
| 2026-04-28 17:26 | 47.43406 | 7.79948 | 40050 ft | 426 kts | 288° |
| 2026-04-28 17:26 | 47.45412 | 7.71707 | 40041 ft | 426 kts | 288° |
| 2026-04-28 17:27 | 47.47161 | 7.63427 | 40048 ft | 424 kts | 283° |
| 2026-04-28 17:27 | 47.48633 | 7.54949 | 40045 ft | 424 kts | 282° |
| 2026-04-28 17:28 | 47.50043 | 7.46464 | 40039 ft | 425 kts | 282° |
| 2026-04-28 17:28 | 47.52136 | 7.33768 | 40036 ft | 425 kts | 282° |
| 2026-04-28 17:29 | 47.53540 | 7.25244 | 40039 ft | 425 kts | 282° |
| 2026-04-28 17:30 | 47.55626 | 7.12515 | 40043 ft | 425 kts | 282° |
| 2026-04-28 17:30 | 47.57698 | 6.99781 | 40046 ft | 424 kts | 282° |
| 2026-04-28 17:31 | 47.59758 | 6.87017 | 40056 ft | 423 kts | 282° |
| 2026-04-28 17:32 | 47.61789 | 6.74332 | 40047 ft | 423 kts | 282° |
| 2026-04-28 17:32 | 47.63140 | 6.65843 | 40046 ft | 423 kts | 282° |
| 2026-04-28 17:33 | 47.64488 | 6.57325 | 40031 ft | 423 kts | 282° |
| 2026-04-28 17:33 | 47.65602 | 6.50255 | 40041 ft | 423 kts | 282° |
| 2026-04-28 17:34 | 47.67154 | 6.40357 | 40046 ft | 423 kts | 282° |
| 2026-04-28 17:34 | 47.68475 | 6.31885 | 40051 ft | 423 kts | 282° |
| 2026-04-28 17:35 | 47.70035 | 6.23425 | 40043 ft | 425 kts | 285° |
| 2026-04-28 17:35 | 47.71851 | 6.15045 | 40043 ft | 426 kts | 286° |
| 2026-04-28 17:36 | 47.73683 | 6.06665 | 40041 ft | 426 kts | 286° |
| 2026-04-28 17:36 | 47.75464 | 5.98332 | 40032 ft | 426 kts | 285° |
| 2026-04-28 17:37 | 47.77237 | 5.89903 | 40033 ft | 426 kts | 285° |
| 2026-04-28 17:37 | 47.78999 | 5.81467 | 40028 ft | 428 kts | 285° |
| 2026-04-28 17:38 | 47.80753 | 5.73039 | 40023 ft | 429 kts | 285° |
| 2026-04-28 17:38 | 47.82515 | 5.64550 | 40019 ft | 429 kts | 285° |
| 2026-04-28 17:39 | 47.84269 | 5.56061 | 40019 ft | 429 kts | 285° |
| 2026-04-28 17:40 | 47.86879 | 5.43360 | 40019 ft | 429 kts | 285° |
| 2026-04-28 17:40 | 47.88622 | 5.34832 | 40019 ft | 430 kts | 284° |
| 2026-04-28 17:41 | 47.90708 | 5.26448 | 40016 ft | 434 kts | 295° |
| 2026-04-28 17:41 | 47.94170 | 5.19101 | 40014 ft | 439 kts | 307° |
| 2026-04-28 17:42 | 47.98228 | 5.12246 | 40015 ft | 441 kts | 309° |
| 2026-04-28 17:42 | 48.02379 | 5.05496 | 40008 ft | 442 kts | 309° |
| 2026-04-28 17:43 | 48.06541 | 4.98685 | 40008 ft | 444 kts | 309° |
| 2026-04-28 17:43 | 48.10692 | 4.91820 | 40004 ft | 444 kts | 309° |
| 2026-04-28 17:44 | 48.14797 | 4.84988 | 40006 ft | 444 kts | 309° |
| 2026-04-28 17:44 | 48.18932 | 4.78084 | 40003 ft | 444 kts | 309° |
| 2026-04-28 17:45 | 48.23030 | 4.71228 | 40011 ft | 443 kts | 309° |
| 2026-04-28 17:45 | 48.27151 | 4.64316 | 40010 ft | 445 kts | 309° |
| 2026-04-28 17:46 | 48.31300 | 4.57340 | 40012 ft | 446 kts | 309° |
| 2026-04-28 17:46 | 48.35413 | 4.50405 | 40019 ft | 446 kts | 309° |
| 2026-04-28 17:47 | 48.39549 | 4.43414 | 40019 ft | 446 kts | 309° |
| 2026-04-28 17:47 | 48.43682 | 4.36409 | 40019 ft | 446 kts | 309° |
| 2026-04-28 17:48 | 48.47779 | 4.29447 | 40024 ft | 446 kts | 309° |
| 2026-04-28 17:48 | 48.51906 | 4.22415 | 40024 ft | 448 kts | 308° |
| 2026-04-28 17:49 | 48.56037 | 4.15356 | 40022 ft | 449 kts | 308° |
| 2026-04-28 17:49 | 48.60146 | 4.08317 | 40025 ft | 449 kts | 309° |
| 2026-04-28 17:50 | 48.64283 | 4.01213 | 40023 ft | 449 kts | 309° |
| 2026-04-28 17:50 | 48.68414 | 3.94097 | 40026 ft | 449 kts | 309° |
| 2026-04-28 17:51 | 48.72525 | 3.87035 | 40026 ft | 450 kts | 310° |
| 2026-04-28 17:51 | 48.76923 | 3.80247 | 40031 ft | 451 kts | 313° |
| 2026-04-28 17:52 | 48.81441 | 3.73641 | 40040 ft | 451 kts | 313° |
| 2026-04-28 17:52 | 48.88199 | 3.63672 | 40040 ft | 451 kts | 313° |
| 2026-04-28 17:53 | 48.92637 | 3.57034 | 40042 ft | 451 kts | 313° |
| 2026-04-28 17:53 | 48.97106 | 3.50316 | 40045 ft | 451 kts | 313° |
| 2026-04-28 17:54 | 49.01580 | 3.43572 | 40042 ft | 453 kts | 313° |
| 2026-04-28 17:54 | 49.06040 | 3.36834 | 40043 ft | 454 kts | 313° |
| 2026-04-28 17:55 | 49.10540 | 3.30020 | 40045 ft | 456 kts | 313° |
| 2026-04-28 17:55 | 49.14290 | 3.24330 | 40046 ft | 456 kts | 313° |
| 2026-04-28 17:56 | 49.18783 | 3.17492 | 40050 ft | 456 kts | 313° |
| 2026-04-28 17:56 | 49.23278 | 3.10633 | 40053 ft | 456 kts | 313° |
| 2026-04-28 17:57 | 49.27750 | 3.03790 | 40059 ft | 458 kts | 313° |
| 2026-04-28 17:57 | 49.32273 | 2.96850 | 40066 ft | 460 kts | 313° |
| 2026-04-28 17:58 | 49.36798 | 2.89889 | 40067 ft | 461 kts | 313° |
| 2026-04-28 17:58 | 49.41301 | 2.82943 | 40075 ft | 461 kts | 313° |
| 2026-04-28 17:59 | 49.45828 | 2.75939 | 40075 ft | 461 kts | 313° |
| 2026-04-28 17:59 | 49.50319 | 2.68973 | 40081 ft | 461 kts | 313° |
| 2026-04-28 18:00 | 49.54859 | 2.61908 | 40088 ft | 467 kts | 313° |
| 2026-04-28 18:00 | 49.59463 | 2.54763 | 40089 ft | 470 kts | 316° |
| 2026-04-28 18:01 | 49.64498 | 2.48405 | 40089 ft | 470 kts | 321° |
| 2026-04-28 18:01 | 49.69708 | 2.42241 | 40094 ft | 470 kts | 322° |
| 2026-04-28 18:02 | 49.74938 | 2.36124 | 40096 ft | 471 kts | 322° |
| 2026-04-28 18:02 | 49.80138 | 2.30016 | 40104 ft | 472 kts | 321° |
| 2026-04-28 18:03 | 49.85361 | 2.23845 | 40108 ft | 471 kts | 322° |
| 2026-04-28 18:03 | 49.90582 | 2.17653 | 40112 ft | 472 kts | 322° |
| 2026-04-28 18:04 | 49.95774 | 2.11476 | 40120 ft | 473 kts | 322° |
| 2026-04-28 18:04 | 50.01005 | 2.05237 | 40119 ft | 473 kts | 322° |
| 2026-04-28 18:05 | 50.05341 | 2.00052 | 40127 ft | 472 kts | 322° |
| 2026-04-28 18:05 | 50.11422 | 1.92760 | 40127 ft | 472 kts | 322° |
| 2026-04-28 18:06 | 50.16587 | 1.86456 | 40134 ft | 473 kts | 318° |
| 2026-04-28 18:06 | 50.21394 | 1.79447 | 40137 ft | 473 kts | 316° |
| 2026-04-28 18:07 | 50.26083 | 1.72330 | 40139 ft | 472 kts | 316° |
| 2026-04-28 18:07 | 50.30786 | 1.65113 | 40138 ft | 473 kts | 316° |
| 2026-04-28 18:08 | 50.35496 | 1.57873 | 40137 ft | 473 kts | 316° |
| 2026-04-28 18:08 | 50.40191 | 1.50652 | 40135 ft | 475 kts | 316° |
| 2026-04-28 18:09 | 50.44903 | 1.43386 | 40137 ft | 474 kts | 316° |
| 2026-04-28 18:09 | 50.49605 | 1.36086 | 40141 ft | 475 kts | 315° |
| 2026-04-28 18:10 | 50.54146 | 1.28536 | 40157 ft | 475 kts | 313° |
| 2026-04-28 18:10 | 50.58606 | 1.20938 | 40169 ft | 474 kts | 315° |
| 2026-04-28 18:11 | 50.63239 | 1.13498 | 40196 ft | 476 kts | 316° |
| 2026-04-28 18:11 | 50.67933 | 1.06128 | 40204 ft | 476 kts | 317° |
| 2026-04-28 18:12 | 50.72607 | 0.98762 | 40209 ft | 479 kts | 316° |
| 2026-04-28 18:12 | 50.77300 | 0.91307 | 40209 ft | 477 kts | 317° |
| 2026-04-28 18:13 | 50.81981 | 0.83834 | 40220 ft | 477 kts | 316° |
| 2026-04-28 18:13 | 50.86643 | 0.76366 | 40220 ft | 476 kts | 316° |